Time;durP1;ratioP1;P1;durP2;ratioP2;P2;SDS_P1;SDS_P2;PMS_P1;PMS_P2;Temp;Humidity;BMP_temperature;BMP_pressure;BME280_temperature;BME280_humidity;BME280_pressure;Samples;Min_cycle;Max_cycle;Signal;HPM_P1;HPM_P2
2023/07/13 00:01:12;;;;;;;3.17;2.95;;;;;;;;;;6314297;28;20243;-70
2023/07/13 00:04:17;;;;;;;3.60;3.33;;;;;;;;;;6314202;28;20445;-71
2023/07/13 00:07:21;;;;;;;3.42;3.25;;;;;;;;;;6314237;28;20406;-70
2023/07/13 00:10:26;;;;;;;3.10;2.90;;;;;;;;;;6314070;28;20239;-69
2023/07/13 00:13:32;;;;;;;3.20;3.10;;;;;;;;;;6314173;28;20480;-72
2023/07/13 00:16:37;;;;;;;2.95;2.80;;;;;;;;;;6313787;28;20243;-69
2023/07/13 00:19:41;;;;;;;3.08;2.97;;;;;;;;;;6313835;28;20239;-70
2023/07/13 00:22:45;;;;;;;3.10;2.90;;;;;;;;;;6313988;28;20235;-69
2023/07/13 00:25:51;;;;;;;3.28;3.08;;;;;;;;;;6313876;28;20501;-69
2023/07/13 00:28:57;;;;;;;2.70;2.55;;;;;;;;;;6312009;28;20272;-69
2023/07/13 00:32:01;;;;;;;3.05;2.97;;;;;;;;;;6312651;28;20339;-70
2023/07/13 00:35:06;;;;;;;6.38;3.35;;;;;;;;;;6312170;28;20302;-69
2023/07/13 00:38:10;;;;;;;3.22;3.05;;;;;;;;;;6313678;28;20442;-69
2023/07/13 00:41:15;;;;;;;3.40;3.30;;;;;;;;;;6313331;28;20231;-70
2023/07/13 00:44:23;;;;;;;3.60;3.38;;;;;;;;;;6313217;28;20246;-69
2023/07/13 00:47:27;;;;;;;3.00;2.80;;;;;;;;;;6312996;28;20364;-69
2023/07/13 00:50:31;;;;;;;3.20;2.95;;;;;;;;;;6312251;28;20262;-71
2023/07/13 00:53:36;;;;;;;3.13;3.13;;;;;;;;;;6311759;28;20266;-69
2023/07/13 00:56:40;;;;;;;3.70;3.42;;;;;;;;;;6312610;28;20238;-69
2023/07/13 00:59:47;;;;;;;3.08;2.97;;;;;;;;;;6312520;28;20436;-70
2023/07/13 01:02:52;;;;;;;3.72;3.03;;;;;;;;;;6312199;28;20231;-69
2023/07/13 01:05:56;;;;;;;4.80;3.10;;;;;;;;;;6311347;28;20290;-69
2023/07/13 01:09:03;;;;;;;3.58;3.33;;;;;;;;;;6311487;28;20270;-69
2023/07/13 01:12:08;;;;;;;2.88;2.70;;;;;;;;;;6312417;28;20235;-68
2023/07/13 01:15:27;;;;;;;2.97;2.78;;;;;;;;;;6312333;28;20515;-70
2023/07/13 01:18:33;;;;;;;2.70;2.70;;;;;;;;;;6310661;28;20278;-73
2023/07/13 01:21:42;;;;;;;3.08;2.92;;;;;;;;;;6312154;28;20247;-69
2023/07/13 01:24:49;;;;;;;5.73;2.70;;;;;;;;;;6311142;28;20263;-69
2023/07/13 01:27:53;;;;;;;3.10;2.83;;;;;;;;;;6312006;28;20520;-69
2023/07/13 01:30:59;;;;;;;2.83;2.63;;;;;;;;;;6311423;28;20238;-70
2023/07/13 01:34:03;;;;;;;2.97;2.85;;;;;;;;;;6311475;28;20234;-70
2023/07/13 01:37:09;;;;;;;2.55;2.55;;;;;;;;;;6309963;28;20302;-71
2023/07/13 01:40:14;;;;;;;2.63;2.53;;;;;;;;;;6310869;28;20239;-69
2023/07/13 01:43:19;;;;;;;2.60;2.60;;;;;;;;;;6311229;28;20259;-69
2023/07/13 01:46:23;;;;;;;2.70;2.60;;;;;;;;;;6310986;28;20441;-70
2023/07/13 01:49:28;;;;;;;2.78;2.58;;;;;;;;;;6310264;28;20290;-69
2023/07/13 01:52:33;;;;;;;3.83;3.40;;;;;;;;;;6310263;28;20262;-69
2023/07/13 01:55:38;;;;;;;2.88;2.80;;;;;;;;;;6310185;28;20283;-68
2023/07/13 01:58:42;;;;;;;3.97;3.20;;;;;;;;;;6310372;28;20270;-70
2023/07/13 02:01:48;;;;;;;2.88;2.88;;;;;;;;;;6310048;28;20267;-70
2023/07/13 02:04:52;;;;;;;4.40;2.75;;;;;;;;;;6310490;28;20239;-69
2023/07/13 02:07:59;;;;;;;2.95;2.75;;;;;;;;;;6310899;28;20276;-69
2023/07/13 02:11:05;;;;;;;4.30;2.83;;;;;;;;;;6311025;28;20239;-69
2023/07/13 02:14:09;;;;;;;3.08;2.97;;;;;;;;;;6309938;28;20270;-70
2023/07/13 02:17:13;;;;;;;3.30;3.20;;;;;;;;;;6309903;28;20278;-69
2023/07/13 02:20:18;;;;;;;3.22;3.03;;;;;;;;;;6310419;28;20242;-69
2023/07/13 02:23:23;;;;;;;3.20;3.10;;;;;;;;;;6310881;28;20488;-71
2023/07/13 02:26:28;;;;;;;3.00;2.80;;;;;;;;;;6310531;28;20397;-70
2023/07/13 02:29:32;;;;;;;7.50;2.85;;;;;;;;;;6310263;28;20243;-70
2023/07/13 02:32:36;;;;;;;4.13;3.13;;;;;;;;;;6309494;28;20265;-70
2023/07/13 02:35:41;;;;;;;3.55;3.28;;;;;;;;;;6310287;28;20290;-69
2023/07/13 02:38:46;;;;;;;5.60;3.38;;;;;;;;;;6310553;28;20239;-70
2023/07/13 02:41:50;;;;;;;2.90;2.80;;;;;;;;;;6309448;28;20274;-70
2023/07/13 02:44:55;;;;;;;3.60;3.28;;;;;;;;;;6309463;28;20392;-70
2023/07/13 02:47:59;;;;;;;3.55;3.20;;;;;;;;;;6310505;28;20258;-70
2023/07/13 02:51:04;;;;;;;3.25;3.05;;;;;;;;;;6310711;28;20231;-70
2023/07/13 02:54:11;;;;;;;3.25;3.05;;;;;;;;;;6316116;28;20243;-71
2023/07/13 02:57:16;;;;;;;2.80;2.75;;;;;;;;;;6314611;28;20559;-69
2023/07/13 03:00:20;;;;;;;3.20;2.90;;;;;;;;;;6314194;28;20270;-70
2023/07/13 03:03:24;;;;;;;3.95;3.65;;;;;;;;;;6314294;28;20262;-69
2023/07/13 03:06:30;;;;;;;4.22;2.97;;;;;;;;;;6314530;28;20282;-70
2023/07/13 03:09:37;;;;;;;3.47;3.28;;;;;;;;;;6314117;28;20266;-69
2023/07/13 03:12:44;;;;;;;3.00;2.90;;;;;;;;;;6313864;28;20274;-69
2023/07/13 03:15:57;;;;;;;5.72;3.65;;;;;;;;;;6313661;28;20456;-69
2023/07/13 03:19:01;;;;;;;6.85;3.72;;;;;;;;;;6313884;28;20266;-69
2023/07/13 03:22:06;;;;;;;3.42;3.13;;;;;;;;;;6313915;28;20543;-70
2023/07/13 03:25:13;;;;;;;3.30;2.97;;;;;;;;;;6313596;28;20271;-69
2023/07/13 03:28:19;;;;;;;6.68;3.20;;;;;;;;;;6313554;28;20287;-69
2023/07/13 03:31:32;;;;;;;3.45;3.20;;;;;;;;;;6313600;28;20270;-70
2023/07/13 03:34:36;;;;;;;3.58;3.28;;;;;;;;;;6314262;28;20234;-70
2023/07/13 03:37:42;;;;;;;5.88;3.97;;;;;;;;;;6313513;28;20270;-69
2023/07/13 03:40:53;;;;;;;4.40;2.92;;;;;;;;;;6313140;28;20338;-68
2023/07/13 03:43:58;;;;;;;3.47;3.33;;;;;;;;;;6313337;28;20275;-70
2023/07/13 03:47:05;;;;;;;3.67;3.40;;;;;;;;;;6313121;28;20290;-70
2023/07/13 03:50:10;;;;;;;3.38;2.78;;;;;;;;;;6312834;28;20267;-68
2023/07/13 03:53:14;;;;;;;4.45;3.50;;;;;;;;;;6314127;28;20334;-70
2023/07/13 03:56:20;;;;;;;3.90;2.75;;;;;;;;;;6312958;28;20578;-70
2023/07/13 03:59:25;;;;;;;6.03;3.22;;;;;;;;;;6314018;28;20240;-69
2023/07/13 04:02:29;;;;;;;4.25;3.22;;;;;;;;;;6312716;28;20270;-70
2023/07/13 04:05:33;;;;;;;5.07;3.58;;;;;;;;;;6311900;28;20555;-69
2023/07/13 04:08:38;;;;;;;3.42;3.33;;;;;;;;;;6313725;28;20266;-69
2023/07/13 04:11:44;;;;;;;3.80;3.22;;;;;;;;;;6312594;28;20274;-69
2023/07/13 04:14:48;;;;;;;5.53;3.95;;;;;;;;;;6313546;28;20247;-69
2023/07/13 04:17:53;;;;;;;5.78;3.25;;;;;;;;;;6313223;28;20247;-69
2023/07/13 04:20:57;;;;;;;7.07;3.70;;;;;;;;;;6313073;28;20242;-70
2023/07/13 04:24:02;;;;;;;4.13;3.20;;;;;;;;;;6312945;28;20407;-69
2023/07/13 04:27:08;;;;;;;9.07;3.83;;;;;;;;;;6313570;28;20260;-70
2023/07/13 04:30:13;;;;;;;3.10;2.97;;;;;;;;;;6312395;28;20298;-70
2023/07/13 04:33:17;;;;;;;7.20;5.13;;;;;;;;;;6312493;28;20270;-70
2023/07/13 04:36:22;;;;;;;3.67;3.30;;;;;;;;;;6312677;28;20391;-70
2023/07/13 04:39:26;;;;;;;3.67;3.40;;;;;;;;;;6312819;28;20243;-70
2023/07/13 04:42:34;;;;;;;3.97;3.63;;;;;;;;;;6312718;28;20247;-71
2023/07/13 04:45:38;;;;;;;6.22;3.20;;;;;;;;;;6313152;28;20424;-69
2023/07/13 04:48:42;;;;;;;3.78;3.40;;;;;;;;;;6313155;28;20258;-70
2023/07/13 04:51:47;;;;;;;6.00;2.90;;;;;;;;;;6312688;28;20247;-71
2023/07/13 04:54:51;;;;;;;3.47;3.17;;;;;;;;;;6312565;28;20235;-70
2023/07/13 04:57:58;;;;;;;4.18;3.28;;;;;;;;;;6312637;28;20243;-69
2023/07/13 05:01:03;;;;;;;4.45;3.65;;;;;;;;;;6312149;28;20243;-70
2023/07/13 05:04:07;;;;;;;6.88;3.30;;;;;;;;;;6312432;28;20555;-71
2023/07/13 05:07:12;;;;;;;5.65;3.10;;;;;;;;;;6312470;28;20531;-70
2023/07/13 05:10:16;;;;;;;4.20;2.95;;;;;;;;;;6311701;28;20251;-70
2023/07/13 05:13:23;;;;;;;5.65;3.20;;;;;;;;;;6312063;28;20231;-69
2023/07/13 05:16:30;;;;;;;10.32;2.90;;;;;;;;;;6310591;28;20246;-69
2023/07/13 05:19:34;;;;;;;4.60;2.78;;;;;;;;;;6312004;28;20236;-70
2023/07/13 05:22:38;;;;;;;7.00;2.80;;;;;;;;;;6311437;28;20278;-70
2023/07/13 05:25:42;;;;;;;3.33;2.78;;;;;;;;;;6311747;28;20235;-70
2023/07/13 05:28:48;;;;;;;3.72;2.88;;;;;;;;;;6311554;28;20271;-70
2023/07/13 05:31:52;;;;;;;4.38;2.80;;;;;;;;;;6311351;28;20235;-70
2023/07/13 05:34:57;;;;;;;9.60;2.80;;;;;;;;;;6310940;28;20294;-70
2023/07/13 05:38:01;;;;;;;4.25;2.63;;;;;;;;;;6311263;28;20239;-70
2023/07/13 05:41:05;;;;;;;3.10;2.90;;;;;;;;;;6310879;28;20455;-69
2023/07/13 05:44:11;;;;;;;4.35;2.42;;;;;;;;;;6311274;28;20228;-71
2023/07/13 05:47:16;;;;;;;6.30;2.67;;;;;;;;;;6311193;28;20243;-70
2023/07/13 05:50:20;;;;;;;3.70;2.20;;;;;;;;;;6311699;28;20243;-69
2023/07/13 05:53:25;;;;;;;4.00;2.47;;;;;;;;;;6311755;28;20239;-69
2023/07/13 05:56:29;;;;;;;2.55;2.35;;;;;;;;;;6311212;28;20227;-70
2023/07/13 05:59:35;;;;;;;3.10;2.50;;;;;;;;;;6310057;28;20282;-70
2023/07/13 06:02:40;;;;;;;3.47;2.40;;;;;;;;;;6311125;28;20231;-70
2023/07/13 06:05:44;;;;;;;2.80;2.10;;;;;;;;;;6311009;28;20239;-70
2023/07/13 06:08:48;;;;;;;4.10;1.92;;;;;;;;;;6310606;28;20584;-69
2023/07/13 06:11:53;;;;;;;2.72;2.50;;;;;;;;;;6310619;28;20242;-68
2023/07/13 06:14:58;;;;;;;2.58;2.15;;;;;;;;;;6310849;28;20231;-71
2023/07/13 06:18:03;;;;;;;2.00;1.90;;;;;;;;;;6310726;28;20255;-69
2023/07/13 06:21:08;;;;;;;3.45;2.30;;;;;;;;;;6310629;28;20238;-70
2023/07/13 06:24:13;;;;;;;4.40;2.05;;;;;;;;;;6310754;28;20247;-70
2023/07/13 06:27:18;;;;;;;2.60;2.13;;;;;;;;;;6310480;28;20358;-69
2023/07/13 06:30:23;;;;;;;2.40;2.17;;;;;;;;;;6310084;28;20267;-71
2023/07/13 06:33:28;;;;;;;2.38;2.20;;;;;;;;;;6310800;28;20256;-69
2023/07/13 06:36:32;;;;;;;8.10;2.42;;;;;;;;;;6310147;28;20432;-71
2023/07/13 06:39:38;;;;;;;8.98;2.40;;;;;;;;;;6310032;28;20187;-69
2023/07/13 06:42:42;;;;;;;9.60;2.38;;;;;;;;;;6309332;28;20267;-70
2023/07/13 06:45:49;;;;;;;3.20;2.05;;;;;;;;;;6310547;28;20426;-69
2023/07/13 06:48:54;;;;;;;4.68;2.38;;;;;;;;;;6310004;28;20263;-70
2023/07/13 06:51:58;;;;;;;3.60;2.10;;;;;;;;;;6310296;28;20235;-70
2023/07/13 06:55:03;;;;;;;2.33;2.10;;;;;;;;;;6309908;28;20401;-70
2023/07/13 06:58:08;;;;;;;6.25;2.00;;;;;;;;;;6310020;28;20434;-70
2023/07/13 07:01:15;;;;;;;4.55;1.95;;;;;;;;;;6309976;28;20232;-70
2023/07/13 07:04:19;;;;;;;2.60;2.17;;;;;;;;;;6309078;28;20262;-69
2023/07/13 07:07:25;;;;;;;2.65;1.85;;;;;;;;;;6309882;28;20247;-70
2023/07/13 07:10:31;;;;;;;5.80;2.25;;;;;;;;;;6309715;28;20441;-70
2023/07/13 07:13:35;;;;;;;3.60;1.98;;;;;;;;;;6310013;28;20251;-70
2023/07/13 07:16:41;;;;;;;4.95;2.10;;;;;;;;;;6309941;28;20235;-70
2023/07/13 07:19:45;;;;;;;3.70;1.92;;;;;;;;;;6309984;28;20417;-69
2023/07/13 07:22:49;;;;;;;4.57;2.20;;;;;;;;;;6309955;28;20235;-69
2023/07/13 07:25:54;;;;;;;4.60;2.05;;;;;;;;;;6310048;28;20243;-70
2023/07/13 07:28:58;;;;;;;6.68;2.03;;;;;;;;;;6309505;28;20263;-70
2023/07/13 07:32:07;;;;;;;2.90;1.88;;;;;;;;;;6310007;28;20418;-71
2023/07/13 07:35:31;;;;;;;2.33;1.80;;;;;;;;;;6308570;28;20303;-70
2023/07/13 07:38:41;;;;;;;2.70;1.73;;;;;;;;;;6310454;28;20433;-71
2023/07/13 07:41:45;;;;;;;6.18;1.83;;;;;;;;;;6314079;28;20227;-69
2023/07/13 07:45:00;;;;;;;2.00;1.80;;;;;;;;;;6313307;28;20272;-71
2023/07/13 07:48:07;;;;;;;5.50;2.58;;;;;;;;;;6314371;28;20231;-70
2023/07/13 07:51:11;;;;;;;2.10;1.90;;;;;;;;;;6313306;28;20286;-71
2023/07/13 07:54:16;;;;;;;1.77;1.67;;;;;;;;;;6314386;28;20239;-70
2023/07/13 07:57:40;;;;;;;2.78;1.80;;;;;;;;;;6313007;28;20274;-70
2023/07/13 08:00:47;;;;;;;4.13;1.90;;;;;;;;;;6313953;28;20242;-70
2023/07/13 08:03:56;;;;;;;3.80;2.00;;;;;;;;;;6314050;28;20247;-69
2023/07/13 08:07:03;;;;;;;2.88;1.90;;;;;;;;;;6313887;28;20326;-71
2023/07/13 08:10:08;;;;;;;2.50;1.80;;;;;;;;;;6313458;28;20263;-71
2023/07/13 08:13:13;;;;;;;2.08;1.83;;;;;;;;;;6313296;28;20235;-70
2023/07/13 08:16:18;;;;;;;2.10;1.75;;;;;;;;;;6313244;28;20243;-70
2023/07/13 08:19:23;;;;;;;2.60;1.73;;;;;;;;;;6313183;28;20514;-69
2023/07/13 08:22:28;;;;;;;3.13;1.90;;;;;;;;;;6313492;28;20263;-70
2023/07/13 08:25:33;;;;;;;2.72;1.83;;;;;;;;;;6313506;28;20310;-69
2023/07/13 08:28:37;;;;;;;6.70;1.85;;;;;;;;;;6313380;28;20242;-70
2023/07/13 08:31:42;;;;;;;3.35;1.80;;;;;;;;;;6313921;28;20410;-70
2023/07/13 08:34:47;;;;;;;2.05;1.90;;;;;;;;;;6313990;28;20270;-70
2023/07/13 08:37:52;;;;;;;3.20;2.10;;;;;;;;;;6313709;28;20234;-69
2023/07/13 08:40:57;;;;;;;5.40;1.98;;;;;;;;;;6313456;28;20484;-69
2023/07/13 08:44:03;;;;;;;7.20;2.75;;;;;;;;;;6312975;28;20256;-71
2023/07/13 08:47:09;;;;;;;5.30;1.80;;;;;;;;;;6313067;28;20239;-70
2023/07/13 08:50:16;;;;;;;10.50;1.95;;;;;;;;;;6312922;28;20270;-71
2023/07/13 08:53:20;;;;;;;2.50;2.05;;;;;;;;;;6312943;28;20243;-71
2023/07/13 08:56:26;;;;;;;6.93;1.90;;;;;;;;;;6312688;28;20231;-71
2023/07/13 08:59:34;;;;;;;3.70;1.70;;;;;;;;;;6311519;28;20279;-71
2023/07/13 09:02:42;;;;;;;1.88;1.77;;;;;;;;;;6311996;28;20235;-70
2023/07/13 09:05:51;;;;;;;1.95;1.85;;;;;;;;;;6312455;28;20244;-70
2023/07/13 09:08:59;;;;;;;1.73;1.58;;;;;;;;;;6312390;28;20239;-69
2023/07/13 09:12:11;;;;;;;1.45;1.45;;;;;;;;;;6312204;28;20427;-70
2023/07/13 09:15:27;;;;;;;1.92;1.83;;;;;;;;;;6311763;28;20243;-71
2023/07/13 09:18:33;;;;;;;1.75;1.60;;;;;;;;;;6311740;28;20235;-71
2023/07/13 09:21:41;;;;;;;2.30;1.67;;;;;;;;;;6311676;28;20247;-70
2023/07/13 09:24:52;;;;;;;1.65;1.55;;;;;;;;;;6312097;28;20259;-70
2023/07/13 09:27:58;;;;;;;4.05;1.60;;;;;;;;;;6311442;28;20239;-70
2023/07/13 09:31:05;;;;;;;1.67;1.63;;;;;;;;;;6311689;28;20421;-70
2023/07/13 09:34:10;;;;;;;5.07;1.60;;;;;;;;;;6311727;28;20244;-70
2023/07/13 09:37:16;;;;;;;4.97;1.90;;;;;;;;;;6310805;28;20564;-69
2023/07/13 09:40:23;;;;;;;1.52;1.52;;;;;;;;;;6311174;28;20264;-69
2023/07/13 09:43:28;;;;;;;10.27;1.98;;;;;;;;;;6311461;28;20239;-70
2023/07/13 09:46:33;;;;;;;6.00;1.65;;;;;;;;;;6310858;28;20535;-69
2023/07/13 09:49:38;;;;;;;5.95;1.85;;;;;;;;;;6310771;28;20255;-70
2023/07/13 09:52:44;;;;;;;5.47;1.80;;;;;;;;;;6310987;28;20231;-70
2023/07/13 09:55:49;;;;;;;3.35;1.80;;;;;;;;;;6310714;28;20243;-70
2023/07/13 09:58:58;;;;;;;5.55;1.70;;;;;;;;;;6311159;28;20243;-71
2023/07/13 10:02:04;;;;;;;4.10;1.50;;;;;;;;;;6309236;28;20452;-70
2023/07/13 10:05:12;;;;;;;6.38;2.13;;;;;;;;;;6310948;28;20231;-70
2023/07/13 10:08:19;;;;;;;4.63;2.20;;;;;;;;;;6311017;28;20527;-71
2023/07/13 10:11:24;;;;;;;1.88;1.77;;;;;;;;;;6310524;28;20271;-71
2023/07/13 10:14:29;;;;;;;4.63;1.88;;;;;;;;;;6310908;28;20246;-71
2023/07/13 10:17:34;;;;;;;3.63;1.60;;;;;;;;;;6310323;28;20230;-69
2023/07/13 10:20:38;;;;;;;2.20;1.75;;;;;;;;;;6312411;28;20239;-70
2023/07/13 10:23:45;;;;;;;1.58;1.58;;;;;;;;;;6310383;28;20235;-70
2023/07/13 10:26:52;;;;;;;7.30;1.98;;;;;;;;;;6310342;28;20247;-69
2023/07/13 10:30:03;;;;;;;9.02;1.50;;;;;;;;;;6310358;28;20238;-70
2023/07/13 10:33:12;;;;;;;2.13;1.92;;;;;;;;;;6310476;28;20231;-70
2023/07/13 10:36:19;;;;;;;4.68;1.80;;;;;;;;;;6310568;28;20321;-70
2023/07/13 10:39:26;;;;;;;1.67;1.58;;;;;;;;;;6310068;28;20527;-71
2023/07/13 10:42:34;;;;;;;1.63;1.40;;;;;;;;;;6310358;28;20258;-68
2023/07/13 10:45:39;;;;;;;3.53;1.80;;;;;;;;;;6310289;28;20242;-69
2023/07/13 10:48:45;;;;;;;4.10;1.70;;;;;;;;;;6310281;28;20223;-70
2023/07/13 10:51:51;;;;;;;3.15;1.63;;;;;;;;;;6310210;28;20339;-70
2023/07/13 10:54:58;;;;;;;1.75;1.40;;;;;;;;;;6310466;28;20231;-71
2023/07/13 10:58:03;;;;;;;2.55;1.48;;;;;;;;;;6310333;28;20239;-71
2023/07/13 11:01:12;;;;;;;1.73;1.63;;;;;;;;;;6310486;28;20238;-70
2023/07/13 11:04:17;;;;;;;3.13;1.40;;;;;;;;;;6309480;28;20267;-70
2023/07/13 11:07:23;;;;;;;3.25;1.58;;;;;;;;;;6310139;28;20243;-71
2023/07/13 11:10:46;;;;;;;3.25;2.08;;;;;;;;;;6309687;28;20275;-71
2023/07/13 11:14:04;;;;;;;2.28;2.08;;;;;;;;;;6311662;28;20275;-69
2023/07/13 11:17:26;;;;;;;3.88;1.63;;;;;;;;;;6314735;28;20247;-70
2023/07/13 11:20:39;;;;;;;4.53;1.70;;;;;;;;;;6314803;28;20235;-70
2023/07/13 11:23:44;;;;;;;4.43;1.55;;;;;;;;;;6315022;28;20235;-70
2023/07/13 11:26:53;;;;;;;1.20;1.20;;;;;;;;;;6314535;28;20242;-71
2023/07/13 11:30:11;;;;;;;19.05;2.35;;;;;;;;;;6314608;28;20247;-73
2023/07/13 11:33:20;;;;;;;7.15;1.60;;;;;;;;;;6314492;28;20255;-71
2023/07/13 11:36:25;;;;;;;3.25;1.60;;;;;;;;;;6314878;28;20286;-70
2023/07/13 11:39:32;;;;;;;4.13;1.88;;;;;;;;;;6314726;28;20297;-71
2023/07/13 11:42:37;;;;;;;2.92;1.40;;;;;;;;;;6314324;28;20246;-69
2023/07/13 11:45:42;;;;;;;3.30;1.60;;;;;;;;;;6314162;28;20239;-69
2023/07/13 11:48:51;;;;;;;2.65;1.63;;;;;;;;;;6314446;28;20544;-70
2023/07/13 11:51:56;;;;;;;2.47;1.60;;;;;;;;;;6314175;28;20262;-71
2023/07/13 11:55:02;;;;;;;3.15;1.40;;;;;;;;;;6313821;28;20243;-72
2023/07/13 11:58:06;;;;;;;2.80;1.70;;;;;;;;;;6313906;28;20230;-69
2023/07/13 12:01:18;;;;;;;1.92;1.60;;;;;;;;;;6313586;28;20259;-70
2023/07/13 12:04:24;;;;;;;4.75;1.60;;;;;;;;;;6314128;28;20352;-71
2023/07/13 12:07:30;;;;;;;3.13;1.58;;;;;;;;;;6313424;28;20242;-70
2023/07/13 12:10:34;;;;;;;1.98;1.70;;;;;;;;;;6313250;28;20255;-71
2023/07/13 12:13:39;;;;;;;1.83;1.55;;;;;;;;;;6313459;28;20262;-71
2023/07/13 12:16:46;;;;;;;2.78;1.58;;;;;;;;;;6313357;28;20266;-71
2023/07/13 12:19:52;;;;;;;6.57;1.80;;;;;;;;;;6313598;28;20424;-71
2023/07/13 12:22:56;;;;;;;2.90;1.85;;;;;;;;;;6345883;28;20376;-71
2023/07/13 12:26:03;;;;;;;1.65;1.55;;;;;;;;;;6312704;28;20238;-71
2023/07/13 12:29:09;;;;;;;1.73;1.55;;;;;;;;;;6313025;28;20235;-71
2023/07/13 12:32:19;;;;;;;3.50;1.90;;;;;;;;;;6312873;28;20282;-70
2023/07/13 12:35:23;;;;;;;1.60;1.50;;;;;;;;;;6312288;28;20294;-70
2023/07/13 12:38:27;;;;;;;1.63;1.45;;;;;;;;;;6312327;28;20279;-70
2023/07/13 12:41:32;;;;;;;3.10;1.45;;;;;;;;;;6313139;28;20242;-72
2023/07/13 12:44:42;;;;;;;1.50;1.40;;;;;;;;;;6312720;28;20259;-70
2023/07/13 12:47:50;;;;;;;9.15;1.60;;;;;;;;;;6314369;28;20227;-71
2023/07/13 12:50:55;;;;;;;2.08;1.20;;;;;;;;;;6312605;28;20539;-71
2023/07/13 12:54:07;;;;;;;7.45;1.50;;;;;;;;;;6313083;28;20452;-72
2023/07/13 12:57:17;;;;;;;6.75;1.50;;;;;;;;;;6312447;28;20290;-70
2023/07/13 13:00:26;;;;;;;5.35;2.00;;;;;;;;;;6313591;28;20232;-69
2023/07/13 13:03:33;;;;;;;2.83;1.58;;;;;;;;;;6312214;28;20239;-69
2023/07/13 13:06:38;;;;;;;1.20;1.20;;;;;;;;;;6312209;28;20407;-69
2023/07/13 13:09:42;;;;;;;1.30;1.30;;;;;;;;;;6312282;28;20528;-70
2023/07/13 13:12:47;;;;;;;1.95;1.35;;;;;;;;;;6311649;28;20274;-70
2023/07/13 13:15:52;;;;;;;2.40;1.48;;;;;;;;;;6311958;28;20235;-71
2023/07/13 13:18:58;;;;;;;1.55;1.38;;;;;;;;;;6311773;28;20231;-70
2023/07/13 13:22:02;;;;;;;1.17;1.17;;;;;;;;;;6311969;28;20239;-69
2023/07/13 13:25:09;;;;;;;2.30;1.20;;;;;;;;;;6311573;28;20235;-70
2023/07/13 13:28:16;;;;;;;1.58;1.48;;;;;;;;;;6311328;28;20235;-70
2023/07/13 13:31:20;;;;;;;2.10;1.50;;;;;;;;;;6312009;28;20243;-70
2023/07/13 13:34:27;;;;;;;3.85;1.67;;;;;;;;;;6311967;28;20263;-68
2023/07/13 13:37:31;;;;;;;6.30;1.63;;;;;;;;;;6310434;28;20235;-69
2023/07/13 13:40:35;;;;;;;3.08;1.70;;;;;;;;;;6311300;28;20236;-70
2023/07/13 13:43:39;;;;;;;3.22;1.52;;;;;;;;;;6311656;28;20239;-69
2023/07/13 13:46:44;;;;;;;1.95;1.60;;;;;;;;;;6311103;28;20259;-70
2023/07/13 13:49:50;;;;;;;2.92;1.15;;;;;;;;;;6311631;28;20491;-72
2023/07/13 13:52:54;;;;;;;3.85;1.42;;;;;;;;;;6311101;28;20551;-69
2023/07/13 13:55:59;;;;;;;3.17;1.88;;;;;;;;;;6311242;28;20243;-70
2023/07/13 13:59:04;;;;;;;6.30;1.52;;;;;;;;;;6311412;28;20239;-70
2023/07/13 14:02:21;;;;;;;1.83;1.45;;;;;;;;;;6311091;28;20523;-70
2023/07/13 14:05:27;;;;;;;2.97;1.40;;;;;;;;;;6311355;28;20244;-69
2023/07/13 14:08:32;;;;;;;6.85;1.45;;;;;;;;;;6311155;28;20242;-71
2023/07/13 14:11:36;;;;;;;3.47;1.50;;;;;;;;;;6311311;28;20246;-70
2023/07/13 14:14:41;;;;;;;1.38;1.27;;;;;;;;;;6310567;28;20262;-71
2023/07/13 14:17:45;;;;;;;3.22;1.40;;;;;;;;;;6311073;28;20239;-70
2023/07/13 14:20:52;;;;;;;2.80;1.85;;;;;;;;;;6311144;28;20242;-72
2023/07/13 14:23:58;;;;;;;3.55;1.50;;;;;;;;;;6311204;28;20267;-70
2023/07/13 14:27:02;;;;;;;5.22;1.30;;;;;;;;;;6310755;28;20244;-70
2023/07/13 14:30:14;;;;;;;3.40;1.45;;;;;;;;;;6310568;28;20238;-70
2023/07/13 14:33:18;;;;;;;5.10;1.77;;;;;;;;;;6310790;28;20255;-70
2023/07/13 14:36:29;;;;;;;5.70;1.88;;;;;;;;;;6310664;28;20290;-71
2023/07/13 14:39:33;;;;;;;5.10;1.95;;;;;;;;;;6310708;28;20234;-70
2023/07/13 14:42:38;;;;;;;3.15;1.55;;;;;;;;;;6310318;28;20528;-70
2023/07/13 14:45:43;;;;;;;4.97;1.80;;;;;;;;;;6310675;28;20482;-70
2023/07/13 14:48:47;;;;;;;2.35;1.67;;;;;;;;;;6310002;28;20239;-70
2023/07/13 14:51:54;;;;;;;2.33;1.70;;;;;;;;;;6310195;28;20262;-69
2023/07/13 14:54:58;;;;;;;3.20;1.58;;;;;;;;;;6310213;28;20266;-70
2023/07/13 14:58:02;;;;;;;3.75;1.77;;;;;;;;;;6310499;28;20410;-70
2023/07/13 15:01:06;;;;;;;3.80;1.77;;;;;;;;;;6309897;28;20244;-71
2023/07/13 15:04:11;;;;;;;4.47;2.15;;;;;;;;;;6310367;28;20430;-71
2023/07/13 15:07:18;;;;;;;2.15;1.95;;;;;;;;;;6310219;28;20438;-71
2023/07/13 15:10:24;;;;;;;3.55;1.95;;;;;;;;;;6310112;28;20239;-70
2023/07/13 15:13:28;;;;;;;7.05;4.70;;;;;;;;;;6310529;28;20263;-72
2023/07/13 15:16:34;;;;;;;2.78;2.65;;;;;;;;;;6310867;28;20239;-73
2023/07/13 15:19:38;;;;;;;3.22;2.00;;;;;;;;;;6310048;28;20520;-71
2023/07/13 15:22:44;;;;;;;6.97;2.10;;;;;;;;;;6309147;28;20266;-73
2023/07/13 15:25:49;;;;;;;2.05;1.77;;;;;;;;;;6309813;28;20243;-71
2023/07/13 15:28:53;;;;;;;5.68;2.22;;;;;;;;;;6309785;28;20548;-71
2023/07/13 15:31:57;;;;;;;2.72;2.50;;;;;;;;;;6309753;28;20235;-70
2023/07/13 15:35:02;;;;;;;2.00;2.00;;;;;;;;;;6309763;28;20299;-73
2023/07/13 15:38:15;;;;;;;5.85;2.22;;;;;;;;;;6310068;28;20231;-71
2023/07/13 15:41:22;;;;;;;3.70;2.00;;;;;;;;;;6309561;28;20244;-74
2023/07/13 15:44:29;;;;;;;5.28;1.80;;;;;;;;;;6309694;28;20238;-70
2023/07/13 15:47:33;;;;;;;3.10;1.67;;;;;;;;;;6309559;28;20429;-72
2023/07/13 15:50:44;;;;;;;2.33;2.15;;;;;;;;;;6309583;28;20239;-69
2023/07/13 15:53:50;;;;;;;6.40;2.10;;;;;;;;;;6309529;28;20267;-70
2023/07/13 15:56:55;;;;;;;2.00;1.90;;;;;;;;;;6308929;28;20266;-69
2023/07/13 16:00:00;;;;;;;2.58;2.03;;;;;;;;;;6310905;28;20231;-69
2023/07/13 16:03:06;;;;;;;4.38;1.95;;;;;;;;;;6314134;28;20411;-72
2023/07/13 16:06:19;;;;;;;2.75;2.10;;;;;;;;;;6313723;28;20239;-73
2023/07/13 16:09:26;;;;;;;2.00;1.85;;;;;;;;;;6289119;28;20232;-69
2023/07/13 16:12:30;;;;;;;3.45;1.80;;;;;;;;;;6292330;28;20234;-70
2023/07/13 16:15:34;;;;;;;3.80;1.70;;;;;;;;;;6292443;28;20267;-69
2023/07/13 16:18:40;;;;;;;1.80;1.70;;;;;;;;;;6288740;28;20244;-69
2023/07/13 16:21:46;;;;;;;4.32;2.08;;;;;;;;;;6288634;28;20243;-69
2023/07/13 16:24:56;;;;;;;1.95;1.60;;;;;;;;;;6288859;28;20244;-71
2023/07/13 16:28:01;;;;;;;5.25;2.00;;;;;;;;;;6288152;28;20244;-70
2023/07/13 16:31:07;;;;;;;8.68;2.00;;;;;;;;;;6288529;28;20236;-70
2023/07/13 16:34:12;;;;;;;3.50;1.50;;;;;;;;;;6288975;28;20548;-70
2023/07/13 16:37:18;;;;;;;5.93;1.50;;;;;;;;;;6288957;28;20295;-71
2023/07/13 16:40:26;;;;;;;2.08;1.73;;;;;;;;;;6288646;28;20244;-70
2023/07/13 16:43:30;;;;;;;4.25;1.90;;;;;;;;;;6288681;28;20232;-69
2023/07/13 16:46:35;;;;;;;5.35;1.98;;;;;;;;;;6288645;28;20243;-70
2023/07/13 16:49:39;;;;;;;6.85;1.90;;;;;;;;;;6288609;28;20456;-70
2023/07/13 16:52:44;;;;;;;9.52;2.20;;;;;;;;;;6287959;28;20248;-69
2023/07/13 16:55:50;;;;;;;2.10;2.00;;;;;;;;;;6287936;28;20265;-70
2023/07/13 16:58:54;;;;;;;2.90;2.25;;;;;;;;;;6287654;28;20373;-70
2023/07/13 17:01:59;;;;;;;2.38;1.90;;;;;;;;;;6287555;28;20240;-69
2023/07/13 17:05:04;;;;;;;3.55;1.90;;;;;;;;;;6287546;28;20248;-70
2023/07/13 17:08:14;;;;;;;3.85;1.80;;;;;;;;;;6303071;28;20271;-70
2023/07/13 17:11:19;;;;;;;4.53;2.15;;;;;;;;;;6312546;28;20247;-69
2023/07/13 17:14:27;;;;;;;3.97;1.75;;;;;;;;;;6312745;28;20262;-69
2023/07/13 17:17:33;;;;;;;3.25;1.60;;;;;;;;;;6312466;28;20429;-71
2023/07/13 17:20:42;;;;;;;3.20;1.88;;;;;;;;;;6312226;28;20243;-70
2023/07/13 17:23:47;;;;;;;1.45;1.45;;;;;;;;;;6312552;28;20235;-70
2023/07/13 17:26:54;;;;;;;5.88;2.20;;;;;;;;;;6312447;28;20427;-69
2023/07/13 17:29:59;;;;;;;6.20;1.83;;;;;;;;;;6312237;28;20240;-71
2023/07/13 17:33:05;;;;;;;3.55;1.75;;;;;;;;;;6311783;28;20515;-70
2023/07/13 17:36:12;;;;;;;4.00;2.03;;;;;;;;;;6312047;28;20294;-70
2023/07/13 17:39:18;;;;;;;2.28;1.80;;;;;;;;;;6311632;28;20404;-69
2023/07/13 17:42:23;;;;;;;2.42;2.00;;;;;;;;;;6312841;28;20238;-69
2023/07/13 17:45:30;;;;;;;6.20;2.13;;;;;;;;;;6312051;28;20428;-70
2023/07/13 17:48:36;;;;;;;4.03;2.53;;;;;;;;;;6311549;28;20243;-70
2023/07/13 17:51:41;;;;;;;3.20;2.67;;;;;;;;;;6311189;28;20385;-69
2023/07/13 17:54:45;;;;;;;4.43;1.70;;;;;;;;;;6311220;28;20531;-69
2023/07/13 17:57:51;;;;;;;1.70;1.60;;;;;;;;;;6311472;28;20235;-70
2023/07/13 18:00:55;;;;;;;2.40;1.80;;;;;;;;;;6311255;28;20539;-72
2023/07/13 18:04:04;;;;;;;3.50;1.92;;;;;;;;;;6310741;28;20603;-69
2023/07/13 18:07:11;;;;;;;3.08;1.70;;;;;;;;;;6310739;28;20255;-69
2023/07/13 18:10:16;;;;;;;4.00;1.77;;;;;;;;;;6310690;28;20239;-69
2023/07/13 18:13:22;;;;;;;3.78;1.90;;;;;;;;;;6311099;28;20239;-69
2023/07/13 18:16:28;;;;;;;10.98;2.22;;;;;;;;;;6310473;28;20262;-70
2023/07/13 18:19:34;;;;;;;3.97;1.60;;;;;;;;;;6310717;28;20526;-70
2023/07/13 18:22:38;;;;;;;7.78;1.90;;;;;;;;;;6310257;28;20238;-70
2023/07/13 18:25:44;;;;;;;3.78;1.75;;;;;;;;;;6310331;28;20264;-70
2023/07/13 18:28:50;;;;;;;4.50;1.98;;;;;;;;;;6309887;28;20266;-70
2023/07/13 18:31:57;;;;;;;2.33;2.22;;;;;;;;;;6310097;28;20240;-70
2023/07/13 18:35:01;;;;;;;3.75;2.53;;;;;;;;;;6309744;28;20290;-72